Ek-star — LAMT5 — position and weather

sailwx.info

Track history (hours):
 
Tides and Currents Weather Stations Pressure Air Temp Water Temp Dewpoint Dewpoint Depression Visibility Wind Speed Wind Dir Waves Ship Positions

Ek-star

Last reported at 2014-Oct-30 20:13 UTC. Time now 2014-Oct-30 23:03 UTC.
Position N 60°00' E 026°24'.

Length 135 m; draft 6.1 m.

Type: Tanker. MMSI: 257433000.

Date/timePositionNaut miles runAvg speedWind from/ knotsBaromVisibWave heightAir tempDewpointWater temp
2014-Oct-30 20:13N 60°00' E 026°24'1012.1
2014-Oct-30 19:25N 60°01' E 026°43'106 2.1
2014-Oct-28 16:10N 59°52' E 030°13'0 0.0
2014-Oct-28 06:33N 59°52' E 030°13'101 5.3
2014-Oct-27 11:34N 59°59' E 026°51'1312.7
2014-Oct-27 10:34N 59°58' E 026°26'112 2.9
2014-Oct-25 20:11N 59°54' E 030°08'  
2014-Oct-22 23:33N 59°59' E 026°57'1211.8
2014-Oct-22 22:33N 59°59' E 026°34'6 0.2
2014-Oct-21 17:10N 60°01' E 026°46'10410.8
2014-Oct-21 07:33N 59°54' E 030°13'2 1.9
2014-Oct-21 06:32N 59°55' E 030°15'0 0.0
2014-Oct-21 05:31N 59°55' E 030°15'0 0.0
2014-Oct-21 04:31N 59°55' E 030°15'0 0.0
2014-Oct-21 03:25N 59°55' E 030°15'0 0.0
2014-Oct-21 02:31N 59°55' E 030°15'0 0.0
2014-Oct-21 01:28N 59°55' E 030°15'0 0.0
2014-Oct-21 00:31N 59°55' E 030°15'0 0.0
2014-Oct-20 23:25N 59°55' E 030°15'0 0.0
2014-Oct-20 22:31N 59°55' E 030°15'0 0.0
2014-Oct-20 21:31N 59°55' E 030°15'  
Track history (hours):
 
Tides and Currents Weather Stations Pressure Air Temp Water Temp Dewpoint Dewpoint Depression Visibility Wind Speed Wind Dir Waves Ship Positions

Ek-star

Last reported at 2014-Oct-30 20:13 UTC. Time now 2014-Oct-30 23:03 UTC.
Position N 60°00' E 026°24'.

Length 135 m; draft 6.1 m.

Type: Tanker. MMSI: 257433000.

Date/timePositionNaut miles runAvg speedWind from/ knotsBaromVisibWave heightAir tempDewpointWater temp
2014-Oct-30 20:13N 60°00' E 026°24'1012.1
2014-Oct-30 19:25N 60°01' E 026°43'106 2.1
2014-Oct-28 16:10N 59°52' E 030°13'0 0.0
2014-Oct-28 06:33N 59°52' E 030°13'101 5.3
2014-Oct-27 11:34N 59°59' E 026°51'1312.7
2014-Oct-27 10:34N 59°58' E 026°26'112 2.9
2014-Oct-25 20:11N 59°54' E 030°08'  
2014-Oct-22 23:33N 59°59' E 026°57'1211.8
2014-Oct-22 22:33N 59°59' E 026°34'6 0.2
2014-Oct-21 17:10N 60°01' E 026°46'10410.8
2014-Oct-21 07:33N 59°54' E 030°13'2 1.9
2014-Oct-21 06:32N 59°55' E 030°15'0 0.0
2014-Oct-21 05:31N 59°55' E 030°15'0 0.0
2014-Oct-21 04:31N 59°55' E 030°15'0 0.0
2014-Oct-21 03:25N 59°55' E 030°15'0 0.0
2014-Oct-21 02:31N 59°55' E 030°15'0 0.0
2014-Oct-21 01:28N 59°55' E 030°15'0 0.0
2014-Oct-21 00:31N 59°55' E 030°15'0 0.0
2014-Oct-20 23:25N 59°55' E 030°15'0 0.0
2014-Oct-20 22:31N 59°55' E 030°15'0 0.0
2014-Oct-20 21:31N 59°55' E 030°15'  

Dump ship's entire track history